sensor_id;sensor_type;location;lat;lon;timestamp;pressure;altitude;pressure_sealevel;temperature
14666;BMP280;7420;53.574;10.040;2023-02-25T00:00:28;99509.53;;;3.35
14666;BMP280;7420;53.574;10.040;2023-02-25T00:02:55;99500.03;;;3.34
14666;BMP280;7420;53.574;10.040;2023-02-25T00:05:20;99504.06;;;3.30
14666;BMP280;7420;53.574;10.040;2023-02-25T00:07:46;99507.13;;;3.34
14666;BMP280;7420;53.574;10.040;2023-02-25T00:10:12;99510.94;;;3.31
14666;BMP280;7420;53.574;10.040;2023-02-25T00:12:39;99514.94;;;3.27
14666;BMP280;7420;53.574;10.040;2023-02-25T00:15:06;99518.56;;;3.26
14666;BMP280;7420;53.574;10.040;2023-02-25T00:17:32;99506.50;;;3.32
14666;BMP280;7420;53.574;10.040;2023-02-25T00:19:58;99523.88;;;3.33
14666;BMP280;7420;53.574;10.040;2023-02-25T00:22:23;99528.91;;;3.34
14666;BMP280;7420;53.574;10.040;2023-02-25T00:24:53;99527.91;;;3.35
14666;BMP280;7420;53.574;10.040;2023-02-25T00:27:19;99534.00;;;3.36
14666;BMP280;7420;53.574;10.040;2023-02-25T00:29:44;99538.41;;;3.35
14666;BMP280;7420;53.574;10.040;2023-02-25T00:32:09;99548.38;;;3.39
14666;BMP280;7420;53.574;10.040;2023-02-25T00:34:35;99553.81;;;3.38
14666;BMP280;7420;53.574;10.040;2023-02-25T00:39:26;99552.28;;;3.50
14666;BMP280;7420;53.574;10.040;2023-02-25T00:42:11;99554.28;;;3.48
14666;BMP280;7420;53.574;10.040;2023-02-25T00:44:37;99555.69;;;3.44
14666;BMP280;7420;53.574;10.040;2023-02-25T00:47:03;99568.19;;;3.42
14666;BMP280;7420;53.574;10.040;2023-02-25T00:49:29;99570.44;;;3.45
14666;BMP280;7420;53.574;10.040;2023-02-25T00:51:55;99562.56;;;3.45
14666;BMP280;7420;53.574;10.040;2023-02-25T00:54:21;99565.56;;;3.42
14666;BMP280;7420;53.574;10.040;2023-02-25T00:56:48;99567.19;;;3.43
14666;BMP280;7420;53.574;10.040;2023-02-25T00:59:14;99563.13;;;3.40
14666;BMP280;7420;53.574;10.040;2023-02-25T01:01:40;99566.94;;;3.38
14666;BMP280;7420;53.574;10.040;2023-02-25T01:04:06;99577.28;;;3.39
14666;BMP280;7420;53.574;10.040;2023-02-25T01:06:33;99579.22;;;3.31
14666;BMP280;7420;53.574;10.040;2023-02-25T01:08:59;99583.28;;;3.34
14666;BMP280;7420;53.574;10.040;2023-02-25T01:11:28;99579.06;;;3.39
14666;BMP280;7420;53.574;10.040;2023-02-25T01:13:55;99584.69;;;3.36
14666;BMP280;7420;53.574;10.040;2023-02-25T01:16:25;99589.56;;;3.39
14666;BMP280;7420;53.574;10.040;2023-02-25T01:18:55;99587.72;;;3.33
14666;BMP280;7420;53.574;10.040;2023-02-25T01:21:25;99590.28;;;3.27
14666;BMP280;7420;53.574;10.040;2023-02-25T01:23:57;99596.59;;;3.32
14666;BMP280;7420;53.574;10.040;2023-02-25T01:26:23;99591.78;;;3.36
14666;BMP280;7420;53.574;10.040;2023-02-25T01:28:49;99596.16;;;3.29
14666;BMP280;7420;53.574;10.040;2023-02-25T01:31:16;99582.66;;;3.32
14666;BMP280;7420;53.574;10.040;2023-02-25T01:33:42;99591.16;;;3.34
14666;BMP280;7420;53.574;10.040;2023-02-25T01:36:08;99611.59;;;3.38
14666;BMP280;7420;53.574;10.040;2023-02-25T01:38:33;99602.34;;;3.42
14666;BMP280;7420;53.574;10.040;2023-02-25T01:41:00;99611.78;;;3.37
14666;BMP280;7420;53.574;10.040;2023-02-25T01:43:25;99614.00;;;3.33
14666;BMP280;7420;53.574;10.040;2023-02-25T01:45:53;99613.59;;;3.36
14666;BMP280;7420;53.574;10.040;2023-02-25T01:48:21;99622.91;;;3.38
14666;BMP280;7420;53.574;10.040;2023-02-25T01:50:54;99621.53;;;3.42
14666;BMP280;7420;53.574;10.040;2023-02-25T01:53:25;99620.84;;;3.34
14666;BMP280;7420;53.574;10.040;2023-02-25T01:55:52;99629.34;;;3.36
14666;BMP280;7420;53.574;10.040;2023-02-25T01:58:20;99623.66;;;3.33
14666;BMP280;7420;53.574;10.040;2023-02-25T02:00:46;99626.16;;;3.20
14666;BMP280;7420;53.574;10.040;2023-02-25T02:03:12;99634.88;;;3.20
14666;BMP280;7420;53.574;10.040;2023-02-25T02:06:04;99630.03;;;3.24
14666;BMP280;7420;53.574;10.040;2023-02-25T02:08:32;99649.25;;;3.24
14666;BMP280;7420;53.574;10.040;2023-02-25T02:10:59;99639.75;;;3.23
14666;BMP280;7420;53.574;10.040;2023-02-25T02:13:24;99648.63;;;3.22
14666;BMP280;7420;53.574;10.040;2023-02-25T02:16:00;99655.88;;;3.20
14666;BMP280;7420;53.574;10.040;2023-02-25T02:18:32;99655.25;;;3.18
14666;BMP280;7420;53.574;10.040;2023-02-25T02:23:58;99669.53;;;3.16
14666;BMP280;7420;53.574;10.040;2023-02-25T02:35:25;99667.13;;;3.14
14666;BMP280;7420;53.574;10.040;2023-02-25T02:40:57;99673.31;;;3.07
14666;BMP280;7420;53.574;10.040;2023-02-25T02:43:51;99685.16;;;3.03
14666;BMP280;7420;53.574;10.040;2023-02-25T02:46:22;99686.22;;;3.08
14666;BMP280;7420;53.574;10.040;2023-02-25T02:48:58;99686.59;;;3.05
14666;BMP280;7420;53.574;10.040;2023-02-25T02:51:30;99688.44;;;3.05
14666;BMP280;7420;53.574;10.040;2023-02-25T02:54:00;99694.75;;;3.10
14666;BMP280;7420;53.574;10.040;2023-02-25T02:56:28;99712.59;;;3.00
14666;BMP280;7420;53.574;10.040;2023-02-25T02:59:02;99715.84;;;3.02
14666;BMP280;7420;53.574;10.040;2023-02-25T03:02:07;99722.59;;;2.90
14666;BMP280;7420;53.574;10.040;2023-02-25T03:04:37;99715.47;;;3.05
14666;BMP280;7420;53.574;10.040;2023-02-25T03:07:07;99719.31;;;3.03
14666;BMP280;7420;53.574;10.040;2023-02-25T03:09:42;99717.19;;;2.98
14666;BMP280;7420;53.574;10.040;2023-02-25T03:12:08;99727.59;;;3.06
14666;BMP280;7420;53.574;10.040;2023-02-25T03:14:35;99726.97;;;3.04
14666;BMP280;7420;53.574;10.040;2023-02-25T03:17:07;99729.59;;;3.04
14666;BMP280;7420;53.574;10.040;2023-02-25T03:19:40;99736.16;;;2.94
14666;BMP280;7420;53.574;10.040;2023-02-25T03:22:17;99744.09;;;3.00
14666;BMP280;7420;53.574;10.040;2023-02-25T03:24:54;99745.38;;;2.90
14666;BMP280;7420;53.574;10.040;2023-02-25T03:27:25;99745.94;;;2.85
14666;BMP280;7420;53.574;10.040;2023-02-25T03:29:52;99746.66;;;2.79
14666;BMP280;7420;53.574;10.040;2023-02-25T03:32:19;99754.44;;;2.73
14666;BMP280;7420;53.574;10.040;2023-02-25T03:34:48;99748.94;;;2.68
14666;BMP280;7420;53.574;10.040;2023-02-25T03:37:18;99758.69;;;2.59
14666;BMP280;7420;53.574;10.040;2023-02-25T03:39:52;99760.41;;;2.52
14666;BMP280;7420;53.574;10.040;2023-02-25T03:42:30;99768.44;;;2.51
14666;BMP280;7420;53.574;10.040;2023-02-25T03:44:58;99785.00;;;2.51
14666;BMP280;7420;53.574;10.040;2023-02-25T03:47:26;99780.22;;;2.55
14666;BMP280;7420;53.574;10.040;2023-02-25T03:52:29;99801.91;;;2.49
14666;BMP280;7420;53.574;10.040;2023-02-25T03:54:56;99799.56;;;2.54
14666;BMP280;7420;53.574;10.040;2023-02-25T03:57:23;99810.84;;;2.40
14666;BMP280;7420;53.574;10.040;2023-02-25T03:59:51;99804.59;;;2.41
14666;BMP280;7420;53.574;10.040;2023-02-25T04:02:23;99809.50;;;2.44
14666;BMP280;7420;53.574;10.040;2023-02-25T04:04:50;99804.09;;;2.45
14666;BMP280;7420;53.574;10.040;2023-02-25T04:07:15;99824.44;;;2.43
14666;BMP280;7420;53.574;10.040;2023-02-25T04:09:41;99824.50;;;2.35
14666;BMP280;7420;53.574;10.040;2023-02-25T04:12:06;99821.69;;;2.37
14666;BMP280;7420;53.574;10.040;2023-02-25T04:14:32;99828.53;;;2.23
14666;BMP280;7420;53.574;10.040;2023-02-25T04:16:57;99831.44;;;2.28
14666;BMP280;7420;53.574;10.040;2023-02-25T04:19:23;99838.66;;;2.26
14666;BMP280;7420;53.574;10.040;2023-02-25T04:21:48;99830.16;;;2.24
14666;BMP280;7420;53.574;10.040;2023-02-25T04:24:14;99834.25;;;2.27
14666;BMP280;7420;53.574;10.040;2023-02-25T04:26:39;99844.16;;;2.17
14666;BMP280;7420;53.574;10.040;2023-02-25T04:29:04;99847.22;;;2.21
14666;BMP280;7420;53.574;10.040;2023-02-25T04:31:30;99849.22;;;2.19
14666;BMP280;7420;53.574;10.040;2023-02-25T04:33:55;99839.72;;;2.18
14666;BMP280;7420;53.574;10.040;2023-02-25T04:36:31;99853.47;;;2.20
14666;BMP280;7420;53.574;10.040;2023-02-25T04:38:58;99843.97;;;2.19
14666;BMP280;7420;53.574;10.040;2023-02-25T04:41:26;99846.81;;;2.09
14666;BMP280;7420;53.574;10.040;2023-02-25T04:43:52;99843.97;;;2.19
14666;BMP280;7420;53.574;10.040;2023-02-25T04:46:17;99848.75;;;2.15
14666;BMP280;7420;53.574;10.040;2023-02-25T04:48:42;99845.59;;;2.20
14666;BMP280;7420;53.574;10.040;2023-02-25T04:51:08;99850.69;;;2.21
14666;BMP280;7420;53.574;10.040;2023-02-25T04:53:33;99847.88;;;2.22
14666;BMP280;7420;53.574;10.040;2023-02-25T04:56:06;99845.69;;;2.12
14666;BMP280;7420;53.574;10.040;2023-02-25T04:58:33;99847.72;;;2.24
14666;BMP280;7420;53.574;10.040;2023-02-25T05:01:03;99859.63;;;2.26
14666;BMP280;7420;53.574;10.040;2023-02-25T05:03:30;99859.63;;;2.26
14666;BMP280;7420;53.574;10.040;2023-02-25T05:05:56;99859.97;;;2.23
14666;BMP280;7420;53.574;10.040;2023-02-25T05:08:22;99852.13;;;2.23
14666;BMP280;7420;53.574;10.040;2023-02-25T05:10:47;99849.50;;;2.23
14666;BMP280;7420;53.574;10.040;2023-02-25T05:13:13;99849.84;;;2.21
14666;BMP280;7420;53.574;10.040;2023-02-25T05:15:38;99858.34;;;2.22
14666;BMP280;7420;53.574;10.040;2023-02-25T05:18:03;99856.03;;;2.27
14666;BMP280;7420;53.574;10.040;2023-02-25T05:20:29;99869.38;;;2.18
14666;BMP280;7420;53.574;10.040;2023-02-25T05:22:54;99863.50;;;2.16
14666;BMP280;7420;53.574;10.040;2023-02-25T05:25:20;99869.13;;;2.27
14666;BMP280;7420;53.574;10.040;2023-02-25T05:27:45;99862.25;;;2.26
14666;BMP280;7420;53.574;10.040;2023-02-25T05:30:11;99867.50;;;2.26
14666;BMP280;7420;53.574;10.040;2023-02-25T05:32:37;99875.44;;;2.19
14666;BMP280;7420;53.574;10.040;2023-02-25T05:35:06;99873.78;;;2.18
14666;BMP280;7420;53.574;10.040;2023-02-25T05:37:36;99876.06;;;2.21
14666;BMP280;7420;53.574;10.040;2023-02-25T05:40:01;99877.00;;;2.27
14666;BMP280;7420;53.574;10.040;2023-02-25T05:42:27;99879.34;;;2.22
14666;BMP280;7420;53.574;10.040;2023-02-25T05:44:53;99886.50;;;2.28
14666;BMP280;7420;53.574;10.040;2023-02-25T05:47:18;99888.31;;;2.28
14666;BMP280;7420;53.574;10.040;2023-02-25T05:52:09;99897.69;;;2.22
14666;BMP280;7420;53.574;10.040;2023-02-25T05:54:35;99890.47;;;2.24
14666;BMP280;7420;53.574;10.040;2023-02-25T05:57:00;99913.38;;;2.30
14666;BMP280;7420;53.574;10.040;2023-02-25T05:59:26;99907.53;;;2.21
14666;BMP280;7420;53.574;10.040;2023-02-25T06:01:51;99908.47;;;2.27
14666;BMP280;7420;53.574;10.040;2023-02-25T06:04:16;99915.06;;;2.23
14666;BMP280;7420;53.574;10.040;2023-02-25T06:06:42;99924.75;;;2.23
14666;BMP280;7420;53.574;10.040;2023-02-25T06:09:11;99919.94;;;2.26
14666;BMP280;7420;53.574;10.040;2023-02-25T06:11:37;99921.97;;;2.17
14666;BMP280;7420;53.574;10.040;2023-02-25T06:14:02;99927.22;;;2.17
14666;BMP280;7420;53.574;10.040;2023-02-25T06:16:28;99927.81;;;2.26
14666;BMP280;7420;53.574;10.040;2023-02-25T06:18:58;99933.91;;;2.27
14666;BMP280;7420;53.574;10.040;2023-02-25T06:21:24;99938.84;;;2.22
14666;BMP280;7420;53.574;10.040;2023-02-25T06:23:50;99945.38;;;2.26
14666;BMP280;7420;53.574;10.040;2023-02-25T06:26:16;99952.53;;;2.32
14666;BMP280;7420;53.574;10.040;2023-02-25T06:28:42;99960.63;;;2.22
14666;BMP280;7420;53.574;10.040;2023-02-25T06:31:09;99959.13;;;2.28
14666;BMP280;7420;53.574;10.040;2023-02-25T06:33:35;99968.31;;;2.24
14666;BMP280;7420;53.574;10.040;2023-02-25T06:36:00;99976.78;;;2.34
14666;BMP280;7420;53.574;10.040;2023-02-25T06:38:26;99975.66;;;2.28
14666;BMP280;7420;53.574;10.040;2023-02-25T06:40:51;99978.97;;;2.22
14666;BMP280;7420;53.574;10.040;2023-02-25T06:43:16;99981.09;;;2.27
14666;BMP280;7420;53.574;10.040;2023-02-25T06:45:42;99988.63;;;2.30
14666;BMP280;7420;53.574;10.040;2023-02-25T06:48:07;99980.94;;;2.21
14666;BMP280;7420;53.574;10.040;2023-02-25T06:50:33;99991.09;;;2.23
14666;BMP280;7420;53.574;10.040;2023-02-25T06:52:58;99998.72;;;2.11
14666;BMP280;7420;53.574;10.040;2023-02-25T06:55:24;100009.22;;;2.03
14666;BMP280;7420;53.574;10.040;2023-02-25T06:57:50;100010.53;;;2.07
14666;BMP280;7420;53.574;10.040;2023-02-25T07:00:15;100018.81;;;2.18
14666;BMP280;7420;53.574;10.040;2023-02-25T07:02:41;100022.97;;;2.13
14666;BMP280;7420;53.574;10.040;2023-02-25T07:05:07;100027.59;;;2.03
14666;BMP280;7420;53.574;10.040;2023-02-25T07:07:32;100033.88;;;1.86
14666;BMP280;7420;53.574;10.040;2023-02-25T07:09:57;100040.59;;;1.80
14666;BMP280;7420;53.574;10.040;2023-02-25T07:12:23;100055.22;;;1.75
14666;BMP280;7420;53.574;10.040;2023-02-25T07:14:48;100047.19;;;1.68
14666;BMP280;7420;53.574;10.040;2023-02-25T07:17:14;100060.78;;;1.72
14666;BMP280;7420;53.574;10.040;2023-02-25T07:19:40;100059.97;;;1.63
14666;BMP280;7420;53.574;10.040;2023-02-25T07:22:05;100051.94;;;1.65
14666;BMP280;7420;53.574;10.040;2023-02-25T07:24:34;100060.94;;;1.62
14666;BMP280;7420;53.574;10.040;2023-02-25T07:26:59;100064.53;;;1.61
14666;BMP280;7420;53.574;10.040;2023-02-25T07:29:24;100061.75;;;1.71
14666;BMP280;7420;53.574;10.040;2023-02-25T07:31:50;100069.31;;;1.66
14666;BMP280;7420;53.574;10.040;2023-02-25T07:34:15;100075.88;;;1.54
14666;BMP280;7420;53.574;10.040;2023-02-25T07:36:40;100072.56;;;1.76
14666;BMP280;7420;53.574;10.040;2023-02-25T07:39:08;100081.88;;;1.86
14666;BMP280;7420;53.574;10.040;2023-02-25T07:41:35;100083.38;;;1.73
14666;BMP280;7420;53.574;10.040;2023-02-25T07:44:01;100092.03;;;1.89
14666;BMP280;7420;53.574;10.040;2023-02-25T07:46:28;100094.44;;;1.99
14666;BMP280;7420;53.574;10.040;2023-02-25T07:48:54;100098.19;;;1.96
14666;BMP280;7420;53.574;10.040;2023-02-25T07:51:21;100112.44;;;2.02
14666;BMP280;7420;53.574;10.040;2023-02-25T07:53:48;100105.91;;;1.98
14666;BMP280;7420;53.574;10.040;2023-02-25T07:56:15;100111.13;;;2.14
14666;BMP280;7420;53.574;10.040;2023-02-25T07:58:41;100118.78;;;2.23
14666;BMP280;7420;53.574;10.040;2023-02-25T08:01:08;100119.56;;;2.23
14666;BMP280;7420;53.574;10.040;2023-02-25T08:03:34;100113.09;;;2.12
14666;BMP280;7420;53.574;10.040;2023-02-25T08:06:00;100125.78;;;2.30
14666;BMP280;7420;53.574;10.040;2023-02-25T08:08:27;100131.88;;;2.31
14666;BMP280;7420;53.574;10.040;2023-02-25T08:10:52;100131.69;;;2.24
14666;BMP280;7420;53.574;10.040;2023-02-25T08:13:18;100128.13;;;2.18
14666;BMP280;7420;53.574;10.040;2023-02-25T08:15:44;100134.66;;;2.22
14666;BMP280;7420;53.574;10.040;2023-02-25T08:18:09;100130.13;;;2.16
14666;BMP280;7420;53.574;10.040;2023-02-25T08:20:38;100144.03;;;2.16
14666;BMP280;7420;53.574;10.040;2023-02-25T08:23:09;100141.09;;;2.11
14666;BMP280;7420;53.574;10.040;2023-02-25T08:25:34;100158.00;;;2.01
14666;BMP280;7420;53.574;10.040;2023-02-25T08:28:00;100165.88;;;2.01
14666;BMP280;7420;53.574;10.040;2023-02-25T08:30:25;100177.53;;;1.90
14666;BMP280;7420;53.574;10.040;2023-02-25T08:32:52;100183.41;;;1.84
14666;BMP280;7420;53.574;10.040;2023-02-25T08:35:17;100174.41;;;1.79
14666;BMP280;7420;53.574;10.040;2023-02-25T08:37:43;100176.72;;;1.66
14666;BMP280;7420;53.574;10.040;2023-02-25T08:40:10;100177.69;;;1.65
14666;BMP280;7420;53.574;10.040;2023-02-25T08:42:36;100187.19;;;1.74
14666;BMP280;7420;53.574;10.040;2023-02-25T08:45:03;100188.66;;;1.84
14666;BMP280;7420;53.574;10.040;2023-02-25T08:47:28;100191.28;;;1.92
14666;BMP280;7420;53.574;10.040;2023-02-25T08:49:54;100188.28;;;2.03
14666;BMP280;7420;53.574;10.040;2023-02-25T08:52:19;100189.94;;;2.04
14666;BMP280;7420;53.574;10.040;2023-02-25T08:54:44;100207.81;;;1.93
14666;BMP280;7420;53.574;10.040;2023-02-25T08:57:10;100209.44;;;1.78
14666;BMP280;7420;53.574;10.040;2023-02-25T08:59:36;100211.25;;;1.85
14666;BMP280;7420;53.574;10.040;2023-02-25T09:02:05;100210.28;;;1.94
14666;BMP280;7420;53.574;10.040;2023-02-25T09:04:32;100218.94;;;2.03
14666;BMP280;7420;53.574;10.040;2023-02-25T09:06:59;100224.00;;;2.20
14666;BMP280;7420;53.574;10.040;2023-02-25T09:09:25;100221.47;;;2.42
14666;BMP280;7420;53.574;10.040;2023-02-25T09:11:50;100224.91;;;2.51
14666;BMP280;7420;53.574;10.040;2023-02-25T09:14:16;100236.25;;;2.35
14666;BMP280;7420;53.574;10.040;2023-02-25T09:16:42;100228.19;;;2.37
14666;BMP280;7420;53.574;10.040;2023-02-25T09:19:08;100239.06;;;2.34
14666;BMP280;7420;53.574;10.040;2023-02-25T09:21:35;100248.72;;;2.33
14666;BMP280;7420;53.574;10.040;2023-02-25T09:24:01;100263.00;;;2.07
14666;BMP280;7420;53.574;10.040;2023-02-25T09:26:26;100260.22;;;2.09
14666;BMP280;7420;53.574;10.040;2023-02-25T09:28:52;100275.63;;;2.12
14666;BMP280;7420;53.574;10.040;2023-02-25T09:31:17;100274.47;;;2.14
14666;BMP280;7420;53.574;10.040;2023-02-25T09:33:43;100285.28;;;2.27
14666;BMP280;7420;53.574;10.040;2023-02-25T09:36:13;100294.28;;;2.17
14666;BMP280;7420;53.574;10.040;2023-02-25T09:38:39;100288.75;;;2.12
14666;BMP280;7420;53.574;10.040;2023-02-25T09:44:16;100301.97;;;2.42
14666;BMP280;7420;53.574;10.040;2023-02-25T09:46:59;100297.22;;;2.37
14666;BMP280;7420;53.574;10.040;2023-02-25T09:52:16;100311.16;;;2.46
14666;BMP280;7420;53.574;10.040;2023-02-25T09:54:46;100313.44;;;2.41
14666;BMP280;7420;53.574;10.040;2023-02-25T09:57:18;100317.22;;;2.54
14666;BMP280;7420;53.574;10.040;2023-02-25T09:59:45;100323.09;;;2.64
14666;BMP280;7420;53.574;10.040;2023-02-25T10:02:35;100333.56;;;2.72
14666;BMP280;7420;53.574;10.040;2023-02-25T10:05:06;100330.25;;;2.86
14666;BMP280;7420;53.574;10.040;2023-02-25T10:10:54;100340.63;;;3.26
14666;BMP280;7420;53.574;10.040;2023-02-25T10:13:43;100358.84;;;3.58
14666;BMP280;7420;53.574;10.040;2023-02-25T10:19:30;100365.31;;;3.01
14666;BMP280;7420;53.574;10.040;2023-02-25T10:22:17;100386.03;;;2.88
14666;BMP280;7420;53.574;10.040;2023-02-25T10:25:13;100387.50;;;2.83
14666;BMP280;7420;53.574;10.040;2023-02-25T10:27:46;100400.00;;;2.73
14666;BMP280;7420;53.574;10.040;2023-02-25T10:33:22;100401.66;;;2.74
14666;BMP280;7420;53.574;10.040;2023-02-25T10:35:53;100408.69;;;2.81
14666;BMP280;7420;53.574;10.040;2023-02-25T10:38:21;100411.97;;;2.83
14666;BMP280;7420;53.574;10.040;2023-02-25T10:40:47;100415.25;;;2.93
14666;BMP280;7420;53.574;10.040;2023-02-25T10:43:19;100411.09;;;3.07
14666;BMP280;7420;53.574;10.040;2023-02-25T10:45:48;100412.25;;;3.04
14666;BMP280;7420;53.574;10.040;2023-02-25T10:48:20;100435.88;;;2.96
14666;BMP280;7420;53.574;10.040;2023-02-25T10:53:27;100431.94;;;3.00
14666;BMP280;7420;53.574;10.040;2023-02-25T10:55:53;100442.28;;;3.10
14666;BMP280;7420;53.574;10.040;2023-02-25T10:58:23;100434.56;;;3.00
14666;BMP280;7420;53.574;10.040;2023-02-25T11:01:09;100442.44;;;3.00
14666;BMP280;7420;53.574;10.040;2023-02-25T11:03:53;100448.53;;;3.01
14666;BMP280;7420;53.574;10.040;2023-02-25T11:06:25;100452.94;;;3.00
14666;BMP280;7420;53.574;10.040;2023-02-25T11:08:54;100457.34;;;3.16
14666;BMP280;7420;53.574;10.040;2023-02-25T11:11:29;100459.81;;;3.17
14666;BMP280;7420;53.574;10.040;2023-02-25T11:13:58;100448.88;;;3.52
14666;BMP280;7420;53.574;10.040;2023-02-25T11:16:24;100461.38;;;3.50
14666;BMP280;7420;53.574;10.040;2023-02-25T11:18:59;100451.19;;;3.55
14666;BMP280;7420;53.574;10.040;2023-02-25T11:21:43;100454.38;;;3.35
14666;BMP280;7420;53.574;10.040;2023-02-25T11:24:21;100462.38;;;3.49
14666;BMP280;7420;53.574;10.040;2023-02-25T11:26:50;100480.88;;;3.63
14666;BMP280;7420;53.574;10.040;2023-02-25T11:29:32;100478.75;;;3.59
14666;BMP280;7420;53.574;10.040;2023-02-25T11:32:09;100490.13;;;3.90
14666;BMP280;7420;53.574;10.040;2023-02-25T11:34:45;100481.97;;;3.77
14666;BMP280;7420;53.574;10.040;2023-02-25T11:37:40;100482.13;;;3.83
14666;BMP280;7420;53.574;10.040;2023-02-25T11:40:21;100491.94;;;4.20
14666;BMP280;7420;53.574;10.040;2023-02-25T11:43:00;100486.84;;;3.96
14666;BMP280;7420;53.574;10.040;2023-02-25T11:45:29;100494.50;;;4.36
14666;BMP280;7420;53.574;10.040;2023-02-25T11:47:55;100496.59;;;4.40
14666;BMP280;7420;53.574;10.040;2023-02-25T11:56:23;100494.38;;;4.51
14666;BMP280;7420;53.574;10.040;2023-02-25T12:04:27;100525.41;;;5.09
14666;BMP280;7420;53.574;10.040;2023-02-25T12:07:34;100514.22;;;5.07
14666;BMP280;7420;53.574;10.040;2023-02-25T12:10:10;100516.06;;;4.98
14666;BMP280;7420;53.574;10.040;2023-02-25T12:13:00;100511.59;;;4.62
14666;BMP280;7420;53.574;10.040;2023-02-25T12:15:56;100533.22;;;4.94
14666;BMP280;7420;53.574;10.040;2023-02-25T12:21:42;100533.88;;;4.96
14666;BMP280;7420;53.574;10.040;2023-02-25T12:29:45;100523.09;;;8.42
14666;BMP280;7420;53.574;10.040;2023-02-25T12:56:38;100552.47;;;7.73
14666;BMP280;7420;53.574;10.040;2023-02-25T13:12:39;100576.50;;;8.11
14666;BMP280;7420;53.574;10.040;2023-02-25T13:20:55;100582.88;;;7.90
14666;BMP280;7420;53.574;10.040;2023-02-25T13:23:53;100602.19;;;9.63
14666;BMP280;7420;53.574;10.040;2023-02-25T13:26:32;100594.72;;;10.36
14666;BMP280;7420;53.574;10.040;2023-02-25T13:34:38;100604.34;;;8.82
14666;BMP280;7420;53.574;10.040;2023-02-25T13:40:24;100643.78;;;13.78
14666;BMP280;7420;53.574;10.040;2023-02-25T13:46:31;100655.50;;;17.42
14666;BMP280;7420;53.574;10.040;2023-02-25T13:57:53;100609.50;;;7.82
14666;BMP280;7420;53.574;10.040;2023-02-25T14:00:59;100631.81;;;13.81
14666;BMP280;7420;53.574;10.040;2023-02-25T14:03:47;100624.34;;;6.92
14666;BMP280;7420;53.574;10.040;2023-02-25T14:22:47;100650.53;;;6.38
14666;BMP280;7420;53.574;10.040;2023-02-25T14:25:19;100645.78;;;6.19
14666;BMP280;7420;53.574;10.040;2023-02-25T14:36:40;100669.81;;;5.50
14666;BMP280;7420;53.574;10.040;2023-02-25T14:39:19;100667.13;;;5.36
14666;BMP280;7420;53.574;10.040;2023-02-25T14:47:19;100673.13;;;4.99
14666;BMP280;7420;53.574;10.040;2023-02-25T14:56:17;100753.06;;;19.14
14666;BMP280;7420;53.574;10.040;2023-02-25T15:01:37;100743.56;;;16.76
14666;BMP280;7420;53.574;10.040;2023-02-25T15:10:23;100749.50;;;15.96
14666;BMP280;7420;53.574;10.040;2023-02-25T15:23:56;100740.06;;;6.25
14666;BMP280;7420;53.574;10.040;2023-02-25T15:34:37;100756.06;;;3.63
14666;BMP280;7420;53.574;10.040;2023-02-25T15:37:33;100762.09;;;7.95
14666;BMP280;7420;53.574;10.040;2023-02-25T15:45:50;100762.06;;;6.69
14666;BMP280;7420;53.574;10.040;2023-02-25T16:01:00;100772.25;;;5.31
14666;BMP280;7420;53.574;10.040;2023-02-25T16:06:19;100793.97;;;4.48
14666;BMP280;7420;53.574;10.040;2023-02-25T16:11:35;100786.78;;;3.94
14666;BMP280;7420;53.574;10.040;2023-02-25T16:14:21;100790.44;;;3.85
14666;BMP280;7420;53.574;10.040;2023-02-25T16:17:26;100785.47;;;3.74
14666;BMP280;7420;53.574;10.040;2023-02-25T16:19:55;100785.94;;;3.54
14666;BMP280;7420;53.574;10.040;2023-02-25T16:22:25;100783.28;;;3.30
14666;BMP280;7420;53.574;10.040;2023-02-25T16:24:56;100791.81;;;3.32
14666;BMP280;7420;53.574;10.040;2023-02-25T16:30:35;100811.78;;;3.17
14666;BMP280;7420;53.574;10.040;2023-02-25T16:35:47;100809.44;;;3.06
14666;BMP280;7420;53.574;10.040;2023-02-25T16:38:24;100829.13;;;3.02
14666;BMP280;7420;53.574;10.040;2023-02-25T16:40:51;100821.69;;;2.90
14666;BMP280;7420;53.574;10.040;2023-02-25T16:43:22;100817.81;;;3.02
14666;BMP280;7420;53.574;10.040;2023-02-25T16:46:07;100824.78;;;2.85
14666;BMP280;7420;53.574;10.040;2023-02-25T16:48:44;100823.81;;;2.94
14666;BMP280;7420;53.574;10.040;2023-02-25T16:51:40;100832.19;;;2.64
14666;BMP280;7420;53.574;10.040;2023-02-25T16:54:30;100846.41;;;2.79
14666;BMP280;7420;53.574;10.040;2023-02-25T16:57:00;100844.28;;;2.83
14666;BMP280;7420;53.574;10.040;2023-02-25T16:59:30;100851.81;;;2.78
14666;BMP280;7420;53.574;10.040;2023-02-25T17:02:01;100852.28;;;2.73
14666;BMP280;7420;53.574;10.040;2023-02-25T17:04:33;100852.41;;;2.64
14666;BMP280;7420;53.574;10.040;2023-02-25T17:09:42;100855.56;;;2.50
14666;BMP280;7420;53.574;10.040;2023-02-25T17:12:14;100868.59;;;2.59
14666;BMP280;7420;53.574;10.040;2023-02-25T17:14:43;100862.16;;;2.54
14666;BMP280;7420;53.574;10.040;2023-02-25T17:17:15;100866.75;;;2.52
14666;BMP280;7420;53.574;10.040;2023-02-25T17:19:41;100872.41;;;2.39
14666;BMP280;7420;53.574;10.040;2023-02-25T17:22:07;100873.88;;;2.42
14666;BMP280;7420;53.574;10.040;2023-02-25T17:24:33;100867.59;;;2.18
14666;BMP280;7420;53.574;10.040;2023-02-25T17:26:59;100881.53;;;2.35
14666;BMP280;7420;53.574;10.040;2023-02-25T17:29:33;100883.19;;;2.36
14666;BMP280;7420;53.574;10.040;2023-02-25T17:31:59;100873.00;;;2.33
14666;BMP280;7420;53.574;10.040;2023-02-25T17:34:35;100887.75;;;2.34
14666;BMP280;7420;53.574;10.040;2023-02-25T17:37:03;100881.78;;;2.24
14666;BMP280;7420;53.574;10.040;2023-02-25T17:41:56;100887.69;;;2.26
14666;BMP280;7420;53.574;10.040;2023-02-25T17:47:17;100889.13;;;2.21
14666;BMP280;7420;53.574;10.040;2023-02-25T17:49:44;100897.66;;;2.23
14666;BMP280;7420;53.574;10.040;2023-02-25T17:52:26;100904.34;;;2.60
14666;BMP280;7420;53.574;10.040;2023-02-25T17:54:58;100916.25;;;3.23
14666;BMP280;7420;53.574;10.040;2023-02-25T17:57:26;100918.34;;;2.86
14666;BMP280;7420;53.574;10.040;2023-02-25T17:59:55;100924.50;;;2.77
14666;BMP280;7420;53.574;10.040;2023-02-25T18:04:46;100946.13;;;2.54
14666;BMP280;7420;53.574;10.040;2023-02-25T18:07:28;100945.63;;;2.50
14666;BMP280;7420;53.574;10.040;2023-02-25T18:10:00;100943.59;;;2.44
14666;BMP280;7420;53.574;10.040;2023-02-25T18:12:32;100955.81;;;2.19
14666;BMP280;7420;53.574;10.040;2023-02-25T18:15:00;100947.34;;;2.24
14666;BMP280;7420;53.574;10.040;2023-02-25T18:17:28;100963.66;;;2.19
14666;BMP280;7420;53.574;10.040;2023-02-25T18:19:58;100958.38;;;2.11